createdAt,value
2022-11-23T00:02:21.398Z,14.77
2022-11-23T00:04:48.681Z,10.82
2022-11-23T00:07:16.176Z,11.40
2022-11-23T00:09:43.466Z,10.32
2022-11-23T00:12:10.860Z,14.07
2022-11-23T00:14:38.269Z,9.68
2022-11-23T00:17:05.507Z,11.13
2022-11-23T00:19:33.012Z,8.63
2022-11-23T00:22:00.542Z,13.50
2022-11-23T00:24:27.801Z,12.55
2022-11-23T00:26:55.050Z,10.90
2022-11-23T00:29:22.251Z,8.55
2022-11-23T00:31:49.613Z,9.55
2022-11-23T00:34:16.953Z,9.30
2022-11-23T00:36:44.148Z,9.85
2022-11-23T00:39:11.287Z,11.23
2022-11-23T00:41:38.521Z,9.57
2022-11-23T00:44:05.765Z,7.35
2022-11-23T00:46:32.918Z,13.10
2022-11-23T00:49:00.588Z,8.50
2022-11-23T00:51:29.513Z,8.65
2022-11-23T00:53:57.136Z,11.35
2022-11-23T00:56:24.426Z,9.60
2022-11-23T00:58:55.270Z,11.20
2022-11-23T01:01:23.747Z,11.75
2022-11-23T01:03:52.345Z,10.20
2022-11-23T01:06:23.807Z,10.10
2022-11-23T01:08:52.504Z,12.98
2022-11-23T01:11:20.108Z,14.85
2022-11-23T01:13:47.569Z,9.40
2022-11-23T01:16:22.286Z,10.25
2022-11-23T01:18:57.805Z,11.32
2022-11-23T01:21:25.736Z,6.45
2022-11-23T01:23:53.382Z,8.60
2022-11-23T01:26:20.656Z,6.97
2022-11-23T01:28:48.070Z,8.80
2022-11-23T01:31:16.667Z,12.05
2022-11-23T01:33:43.986Z,7.68
2022-11-23T01:36:11.252Z,7.93
2022-11-23T01:38:39.288Z,5.60
2022-11-23T01:41:07.362Z,9.68
2022-11-23T01:43:34.545Z,7.25
2022-11-23T01:46:02.958Z,9.35
2022-11-23T01:48:35.083Z,6.55
2022-11-23T01:51:03.590Z,7.35
2022-11-23T01:53:30.917Z,9.65
2022-11-23T01:56:00.017Z,12.05
2022-11-23T01:58:28.564Z,8.45
2022-11-23T02:00:55.961Z,10.45
2022-11-23T02:03:23.178Z,10.32
2022-11-23T02:05:53.989Z,10.38
2022-11-23T02:08:21.485Z,10.45
2022-11-23T02:10:49.005Z,9.50
2022-11-23T02:13:16.383Z,5.90
2022-11-23T02:15:43.663Z,7.57
2022-11-23T02:18:20.185Z,8.68
2022-11-23T02:20:47.493Z,8.93
2022-11-23T02:23:33.440Z,9.30
2022-11-23T02:26:00.612Z,6.07
2022-11-23T02:28:35.553Z,7.03
2022-11-23T02:31:03.387Z,7.70
2022-11-23T02:33:31.295Z,14.23
2022-11-23T02:35:59.965Z,6.95
2022-11-23T02:38:34.308Z,13.50
2022-11-23T02:41:01.523Z,7.93
2022-11-23T02:43:28.778Z,13.13
2022-11-23T02:46:00.777Z,9.10
2022-11-23T02:48:28.193Z,7.32
2022-11-23T02:50:55.332Z,14.95
2022-11-23T02:53:22.498Z,11.52
2022-11-23T02:55:49.768Z,6.63
2022-11-23T02:58:16.939Z,5.30
2022-11-23T03:00:44.160Z,7.15
2022-11-23T03:03:11.453Z,9.52
2022-11-23T03:05:38.613Z,8.50
2022-11-23T03:08:06.015Z,8.48
2022-11-23T03:10:33.183Z,7.00
2022-11-23T03:13:00.434Z,6.93
2022-11-23T03:15:28.675Z,9.35
2022-11-23T03:17:57.933Z,10.05
2022-11-23T03:20:25.580Z,13.77
2022-11-23T03:22:52.768Z,8.23
2022-11-23T03:25:19.910Z,9.55
2022-11-23T03:27:47.566Z,5.05
2022-11-23T03:30:15.025Z,6.30
2022-11-23T03:32:42.179Z,9.63
2022-11-23T03:35:09.549Z,7.57
2022-11-23T03:37:36.754Z,8.35
2022-11-23T03:40:04.059Z,10.93
2022-11-23T03:42:31.316Z,10.75
2022-11-23T03:44:58.516Z,7.00
2022-11-23T03:47:25.691Z,11.05
2022-11-23T03:49:52.863Z,7.60
2022-11-23T03:52:20.007Z,6.97
2022-11-23T03:54:47.562Z,8.05
2022-11-23T03:57:14.742Z,8.88
2022-11-23T03:59:42.022Z,9.15
2022-11-23T04:02:09.357Z,8.77
2022-11-23T04:04:36.695Z,5.63
2022-11-23T04:07:04.300Z,5.80
2022-11-23T04:09:31.845Z,7.35
2022-11-23T04:11:59.477Z,9.27
2022-11-23T04:14:26.706Z,10.23
2022-11-23T04:16:53.874Z,4.65
2022-11-23T04:19:21.316Z,6.32
2022-11-23T04:21:48.515Z,7.70
2022-11-23T04:24:15.768Z,5.68
2022-11-23T04:26:42.912Z,5.03
2022-11-23T04:29:10.077Z,8.10
2022-11-23T04:31:37.461Z,5.15
2022-11-23T04:34:04.810Z,7.82
2022-11-23T04:36:32.208Z,9.25
2022-11-23T04:38:59.567Z,4.95
2022-11-23T04:41:26.819Z,6.00
2022-11-23T04:43:54.013Z,9.75
2022-11-23T04:46:21.335Z,9.63
2022-11-23T04:48:48.520Z,7.40
2022-11-23T04:51:16.929Z,6.95
2022-11-23T04:53:44.068Z,7.78
2022-11-23T04:56:11.226Z,7.10
2022-11-23T04:58:38.505Z,9.07
2022-11-23T05:01:06.284Z,9.05
2022-11-23T05:03:35.128Z,5.95
2022-11-23T05:06:02.904Z,5.32
2022-11-23T05:08:30.335Z,5.68
2022-11-23T05:10:57.730Z,5.10
2022-11-23T05:13:25.074Z,5.72
2022-11-23T05:15:52.323Z,8.27
2022-11-23T05:18:19.777Z,6.43
2022-11-23T05:20:47.038Z,10.23
2022-11-23T05:23:14.291Z,4.65
2022-11-23T05:25:41.452Z,7.38
2022-11-23T05:28:38.038Z,5.10
2022-11-23T05:30:55.908Z,5.80
2022-11-23T05:33:23.120Z,3.15
2022-11-23T05:35:50.339Z,5.53
2022-11-23T05:38:17.791Z,6.22
2022-11-23T05:40:46.213Z,4.47
2022-11-23T05:43:13.635Z,5.63
2022-11-23T05:45:40.908Z,9.73
2022-11-23T05:48:08.066Z,8.00
2022-11-23T05:50:35.286Z,6.18
2022-11-23T05:53:02.473Z,6.05
2022-11-23T05:55:29.667Z,5.85
2022-11-23T05:57:56.931Z,6.15
2022-11-23T06:00:24.148Z,7.68
2022-11-23T06:02:51.310Z,9.95
2022-11-23T06:05:18.509Z,8.82
2022-11-23T06:07:45.708Z,4.25
2022-11-23T06:10:13.497Z,7.97
2022-11-23T06:12:40.744Z,7.20
2022-11-23T06:15:08.328Z,4.03
2022-11-23T06:17:36.581Z,6.68
2022-11-23T06:20:04.610Z,13.95
2022-11-23T06:22:31.848Z,8.38
2022-11-23T06:24:59.102Z,7.60
2022-11-23T06:27:26.310Z,7.68
2022-11-23T06:29:53.551Z,12.30
2022-11-23T06:32:20.725Z,9.60
2022-11-23T06:34:48.044Z,7.97
2022-11-23T06:37:15.367Z,13.55
2022-11-23T06:39:42.712Z,8.48
2022-11-23T06:42:37.188Z,11.15
2022-11-23T06:44:57.336Z,10.65
2022-11-23T06:47:26.471Z,8.10
2022-11-23T06:49:53.948Z,9.73
2022-11-23T06:52:21.095Z,9.05
2022-11-23T06:54:48.264Z,6.82
2022-11-23T06:57:15.486Z,9.68
2022-11-23T06:59:44.952Z,7.63
2022-11-23T07:02:13.248Z,11.80
2022-11-23T07:04:40.485Z,18.48
2022-11-23T07:07:10.779Z,12.20
2022-11-23T07:09:38.298Z,12.15
2022-11-23T07:12:05.552Z,7.13
2022-11-23T07:14:32.711Z,6.30
2022-11-23T07:16:59.898Z,8.48
2022-11-23T07:19:27.141Z,5.15
2022-11-23T07:21:54.426Z,18.77
2022-11-23T07:24:21.688Z,26.52
2022-11-23T07:26:49.065Z,12.35
2022-11-23T07:29:19.097Z,13.00
2022-11-23T07:31:46.404Z,7.70
2022-11-23T07:34:13.706Z,12.40
2022-11-23T07:36:40.917Z,13.75
2022-11-23T07:39:08.178Z,9.88
2022-11-23T07:41:35.414Z,8.00
2022-11-23T07:44:02.891Z,7.78
2022-11-23T07:46:30.147Z,9.90
2022-11-23T07:49:01.953Z,11.18
2022-11-23T07:51:29.683Z,14.32
2022-11-23T07:53:57.185Z,11.43
2022-11-23T07:56:24.660Z,10.27
2022-11-23T07:58:51.956Z,6.10
2022-11-23T08:01:19.802Z,7.88
2022-11-23T08:03:47.102Z,5.95
2022-11-23T08:06:15.074Z,7.80
2022-11-23T08:08:42.569Z,8.77
2022-11-23T08:11:10.392Z,13.13
2022-11-23T08:13:37.603Z,16.55
2022-11-23T08:16:04.913Z,14.88
2022-11-23T08:18:32.126Z,14.38
2022-11-23T08:21:02.729Z,11.18
2022-11-23T08:23:30.181Z,7.55
2022-11-23T08:25:57.421Z,6.07
2022-11-23T08:28:24.656Z,5.05
2022-11-23T08:30:51.837Z,6.50
2022-11-23T08:33:18.991Z,7.75
2022-11-23T08:35:46.317Z,6.65
2022-11-23T08:38:13.576Z,6.43
2022-11-23T08:40:40.826Z,8.68
2022-11-23T08:43:08.082Z,6.95
2022-11-23T08:45:35.516Z,8.27
2022-11-23T08:48:04.039Z,6.10
2022-11-23T08:50:31.399Z,7.95
2022-11-23T08:52:59.492Z,6.93
2022-11-23T08:55:27.648Z,6.45
2022-11-23T08:57:58.621Z,7.70
2022-11-23T09:00:26.413Z,10.40
2022-11-23T09:02:53.661Z,8.43
2022-11-23T09:05:20.956Z,8.00
2022-11-23T09:07:48.267Z,14.57
2022-11-23T09:10:18.879Z,7.78
2022-11-23T09:12:46.937Z,8.55
2022-11-23T09:15:14.118Z,14.70
2022-11-23T09:17:41.274Z,8.80
2022-11-23T09:20:08.846Z,12.88
2022-11-23T09:22:36.102Z,8.75
2022-11-23T09:25:03.752Z,10.50
2022-11-23T09:27:30.981Z,7.78
2022-11-23T09:29:58.145Z,7.97
2022-11-23T09:32:25.389Z,5.35
2022-11-23T09:34:52.565Z,2.53
2022-11-23T09:37:19.801Z,5.13
2022-11-23T09:39:47.031Z,6.55
2022-11-23T09:42:31.184Z,5.65
2022-11-23T09:45:04.530Z,3.70
2022-11-23T09:47:39.423Z,8.85
2022-11-23T09:50:09.599Z,8.55
2022-11-23T09:52:38.157Z,14.13
2022-11-23T09:55:14.110Z,10.25
2022-11-23T09:57:43.089Z,8.63
2022-11-23T10:00:23.255Z,10.20
2022-11-23T10:02:50.710Z,7.57
2022-11-23T10:05:23.500Z,7.97
2022-11-23T10:08:09.503Z,4.65
2022-11-23T10:10:45.054Z,9.35
2022-11-23T10:13:15.259Z,7.95
2022-11-23T10:15:57.717Z,5.90
2022-11-23T10:18:36.121Z,6.30
2022-11-23T10:21:12.428Z,6.55
2022-11-23T10:23:50.383Z,5.55
2022-11-23T10:26:18.572Z,11.18
2022-11-23T10:28:50.247Z,5.68
2022-11-23T10:31:21.631Z,6.97
2022-11-23T10:34:07.609Z,8.60
2022-11-23T10:36:38.339Z,5.22
2022-11-23T10:39:27.605Z,6.03
2022-11-23T10:41:57.713Z,8.45
2022-11-23T10:44:32.555Z,8.13
2022-11-23T10:47:00.175Z,6.68
2022-11-23T10:49:29.796Z,6.40
2022-11-23T10:52:07.567Z,9.27
2022-11-23T10:54:41.248Z,7.03
2022-11-23T10:57:23.214Z,9.25
2022-11-23T11:00:04.933Z,5.15
2022-11-23T11:02:39.709Z,11.32
2022-11-23T11:05:14.792Z,10.32
2022-11-23T11:07:42.253Z,4.97
2022-11-23T11:10:29.429Z,7.00
2022-11-23T11:12:56.587Z,7.07
2022-11-23T11:15:23.879Z,6.35
2022-11-23T11:17:58.401Z,11.05
2022-11-23T11:20:28.667Z,12.27
2022-11-23T11:22:56.733Z,6.55
2022-11-23T11:25:35.226Z,5.97
2022-11-23T11:28:04.083Z,4.68
2022-11-23T11:30:43.737Z,13.25
2022-11-23T11:33:22.650Z,9.93
2022-11-23T11:35:51.108Z,8.65
2022-11-23T11:38:21.837Z,5.07
2022-11-23T11:40:50.222Z,5.18
2022-11-23T11:43:39.160Z,5.25
2022-11-23T11:46:28.732Z,5.30
2022-11-23T11:48:59.267Z,5.72
2022-11-23T11:51:26.442Z,9.60
2022-11-23T11:54:16.418Z,12.35
2022-11-23T11:56:45.140Z,8.18
2022-11-23T11:59:20.876Z,22.58
2022-11-23T12:01:51.211Z,8.15
2022-11-23T12:04:22.742Z,6.18
2022-11-23T12:06:55.150Z,23.13
2022-11-23T12:09:27.345Z,6.85
2022-11-23T12:11:54.657Z,6.72
2022-11-23T12:14:22.211Z,6.72
2022-11-23T12:19:59.467Z,7.88
2022-11-23T12:22:51.046Z,5.72
2022-11-23T12:25:36.997Z,7.72
2022-11-23T12:28:13.665Z,17.73
2022-11-23T12:30:48.354Z,5.88
2022-11-23T12:33:30.721Z,10.23
2022-11-23T12:36:03.825Z,3.80
2022-11-23T12:38:44.220Z,2.88
2022-11-23T12:41:17.464Z,8.32
2022-11-23T12:44:03.315Z,4.85
2022-11-23T12:46:49.281Z,6.88
2022-11-23T12:49:24.895Z,12.35
2022-11-23T12:51:59.691Z,9.57
2022-11-23T12:54:39.604Z,11.38
2022-11-23T12:57:21.863Z,104.32
2022-11-23T12:59:53.319Z,184.43
2022-11-23T13:02:23.681Z,32.97
2022-11-23T13:05:02.320Z,27.08
2022-11-23T13:07:50.081Z,16.10
2022-11-23T13:10:31.359Z,6.10
2022-11-23T13:13:14.037Z,46.20
2022-11-23T13:15:43.086Z,8.50
2022-11-23T13:18:19.506Z,9.50
2022-11-23T13:20:57.568Z,8.65
2022-11-23T13:23:24.913Z,7.18
2022-11-23T13:26:13.352Z,9.35
2022-11-23T13:28:40.773Z,15.25
2022-11-23T13:31:17.237Z,13.90
2022-11-23T13:33:45.420Z,8.30
2022-11-23T13:36:19.596Z,11.35
2022-11-23T13:38:47.103Z,9.35
2022-11-23T13:41:33.606Z,7.13
2022-11-23T13:44:19.482Z,7.72
2022-11-23T13:47:02.100Z,6.93
2022-11-23T13:49:45.603Z,9.95
2022-11-23T13:52:18.561Z,6.93
2022-11-23T13:55:09.813Z,11.35
2022-11-23T13:57:48.627Z,10.02
2022-11-23T14:00:34.457Z,9.85
2022-11-23T14:03:20.621Z,8.13
2022-11-23T14:05:50.536Z,8.90
2022-11-23T14:08:19.391Z,8.57
2022-11-23T14:10:46.808Z,7.88
2022-11-23T14:13:18.245Z,7.22
2022-11-23T14:15:52.488Z,9.38
2022-11-23T14:18:22.919Z,8.40
2022-11-23T14:20:53.393Z,7.28
2022-11-23T14:23:37.259Z,8.95
2022-11-23T14:28:50.160Z,10.32
2022-11-23T14:31:17.537Z,8.48
2022-11-23T14:33:53.529Z,4.78
2022-11-23T14:36:39.482Z,7.93
2022-11-23T14:39:23.699Z,10.60
2022-11-23T14:41:53.025Z,7.82
2022-11-23T14:44:22.169Z,5.75
2022-11-23T14:47:02.812Z,12.18
2022-11-23T14:49:30.349Z,7.20
2022-11-23T14:51:58.020Z,7.20
2022-11-23T14:54:25.865Z,4.93
2022-11-23T14:56:54.579Z,8.27
2022-11-23T14:59:23.901Z,9.50
2022-11-23T15:01:56.435Z,6.35
2022-11-23T15:04:25.438Z,8.10
2022-11-23T15:06:55.306Z,6.10
2022-11-23T15:09:25.192Z,8.25
2022-11-23T15:11:52.469Z,8.73
2022-11-23T15:14:21.004Z,6.28
2022-11-23T15:16:49.443Z,10.75
2022-11-23T15:19:20.732Z,7.38
2022-11-23T15:21:49.539Z,9.27
2022-11-23T15:24:27.078Z,17.45
2022-11-23T15:26:57.032Z,15.82
2022-11-23T15:29:30.749Z,16.38
2022-11-23T15:32:30.000Z,16.77
2022-11-23T15:34:45.400Z,19.20
2022-11-23T15:37:13.294Z,18.73
2022-11-23T15:39:40.511Z,16.40
2022-11-23T15:42:07.956Z,19.67
2022-11-23T15:44:38.999Z,21.58
2022-11-23T15:47:07.191Z,21.92
2022-11-23T15:49:38.278Z,19.38
2022-11-23T15:52:05.570Z,16.98
2022-11-23T15:54:37.195Z,20.65
2022-11-23T15:57:07.512Z,18.10
2022-11-23T15:59:40.949Z,16.63
2022-11-23T16:04:39.864Z,16.23
2022-11-23T16:07:16.949Z,24.75
2022-11-23T16:09:52.825Z,21.20
2022-11-23T16:12:22.581Z,19.90
2022-11-23T16:14:51.811Z,19.55
2022-11-23T16:17:21.200Z,20.45
2022-11-23T16:19:49.307Z,24.77
2022-11-23T16:22:22.923Z,20.20
2022-11-23T16:24:51.609Z,16.08
2022-11-23T16:27:23.553Z,24.75
2022-11-23T16:29:51.099Z,16.15
2022-11-23T16:32:26.642Z,16.60
2022-11-23T16:34:54.322Z,18.38
2022-11-23T16:37:22.112Z,26.85
2022-11-23T16:39:49.419Z,22.65
2022-11-23T16:42:17.547Z,32.78
2022-11-23T16:44:45.078Z,25.85
2022-11-23T16:47:30.060Z,25.67
2022-11-23T16:49:57.296Z,26.52
2022-11-23T16:52:25.174Z,25.05
2022-11-23T16:54:55.371Z,26.98
2022-11-23T16:57:32.404Z,24.95
2022-11-23T17:00:02.313Z,26.60
2022-11-23T17:02:29.678Z,21.77
2022-11-23T17:04:57.017Z,24.92
2022-11-23T17:07:24.368Z,27.67
2022-11-23T17:09:51.623Z,19.92
2022-11-23T17:12:19.605Z,25.17
2022-11-23T17:14:48.449Z,25.88
2022-11-23T17:17:18.101Z,20.23
2022-11-23T17:19:48.479Z,22.65
2022-11-23T17:22:16.386Z,22.88
2022-11-23T17:24:43.834Z,28.70
2022-11-23T17:27:15.924Z,19.88
2022-11-23T17:29:44.144Z,30.33
2022-11-23T17:32:15.231Z,25.55
2022-11-23T17:34:42.435Z,22.45
2022-11-23T17:37:15.833Z,23.77
2022-11-23T17:39:43.097Z,28.95
2022-11-23T17:42:13.198Z,20.13
2022-11-23T17:44:40.343Z,26.77
2022-11-23T17:47:08.094Z,28.38
2022-11-23T17:49:35.564Z,27.25
2022-11-23T17:52:03.049Z,25.02
2022-11-23T17:54:30.247Z,30.38
2022-11-23T17:56:57.833Z,27.35
2022-11-23T17:59:25.124Z,21.02
2022-11-23T18:01:52.417Z,30.10
2022-11-23T18:04:19.607Z,25.02
2022-11-23T18:06:46.921Z,27.88
2022-11-23T18:09:14.095Z,27.88
2022-11-23T18:11:41.467Z,33.15
2022-11-23T18:14:08.895Z,33.30
2022-11-23T18:16:36.200Z,40.22
2022-11-23T18:19:03.495Z,27.25
2022-11-23T18:21:30.987Z,26.83
2022-11-23T18:24:04.143Z,22.90
2022-11-23T18:26:32.009Z,32.83
2022-11-23T18:28:59.168Z,31.92
2022-11-23T18:31:26.499Z,23.65
2022-11-23T18:33:53.873Z,27.90
2022-11-23T18:36:21.188Z,29.42
2022-11-23T18:38:48.990Z,47.55
2022-11-23T18:41:17.659Z,35.80
2022-11-23T18:43:45.289Z,29.58
2022-11-23T18:46:18.981Z,37.08
2022-11-23T18:48:47.549Z,24.45
2022-11-23T18:51:16.088Z,38.33
2022-11-23T18:53:47.328Z,36.30
2022-11-23T18:56:14.740Z,26.10
2022-11-23T18:58:42.740Z,28.40
2022-11-23T19:01:14.532Z,28.75
2022-11-23T19:03:42.726Z,27.65
2022-11-23T19:06:13.529Z,23.10
2022-11-23T19:09:02.975Z,25.17
2022-11-23T19:11:30.235Z,22.48
2022-11-23T19:14:00.500Z,24.48
2022-11-23T19:16:30.086Z,26.38
2022-11-23T19:18:58.187Z,30.13
2022-11-23T19:21:26.116Z,25.15
2022-11-23T19:23:54.281Z,33.78
2022-11-23T19:26:21.799Z,25.83
2022-11-23T19:28:49.023Z,32.67
2022-11-23T19:31:21.129Z,54.45
2022-11-23T19:33:49.960Z,35.75
2022-11-23T19:36:18.917Z,47.40
2022-11-23T19:38:46.616Z,43.83
2022-11-23T19:41:13.840Z,31.25
2022-11-23T19:43:41.061Z,34.38
2022-11-23T19:46:10.182Z,44.38
2022-11-23T19:48:37.414Z,46.72
2022-11-23T19:51:06.120Z,54.92
2022-11-23T19:53:34.367Z,41.65
2022-11-23T19:56:02.720Z,71.55
2022-11-23T19:58:33.749Z,45.83
2022-11-23T20:01:05.623Z,46.03
2022-11-23T20:03:35.856Z,41.67
2022-11-23T20:06:05.036Z,51.70
2022-11-23T20:08:32.225Z,42.78
2022-11-23T20:10:59.522Z,36.63
2022-11-23T20:13:26.847Z,51.42
2022-11-23T20:15:54.085Z,35.10
2022-11-23T20:18:25.580Z,48.67
2022-11-23T20:20:55.979Z,41.67
2022-11-23T20:23:23.375Z,43.05
2022-11-23T20:25:50.558Z,35.72
2022-11-23T20:28:17.776Z,36.00
2022-11-23T20:30:45.007Z,31.55
2022-11-23T20:33:12.319Z,29.77
2022-11-23T20:35:39.457Z,35.78
2022-11-23T20:38:06.861Z,25.77
2022-11-23T20:40:34.490Z,37.30
2022-11-23T20:43:01.706Z,31.02
2022-11-23T20:45:29.029Z,23.92
2022-11-23T20:47:57.662Z,27.67
2022-11-23T20:50:26.972Z,34.78
2022-11-23T20:53:04.179Z,28.38
2022-11-23T20:55:33.449Z,34.72
2022-11-23T20:58:00.883Z,34.50
2022-11-23T21:00:28.036Z,32.50
2022-11-23T21:02:56.735Z,38.30
2022-11-23T21:05:24.148Z,33.30
2022-11-23T21:07:51.368Z,31.35
2022-11-23T21:10:37.536Z,32.80
2022-11-23T21:13:23.166Z,31.05
2022-11-23T21:15:50.341Z,38.13
2022-11-23T21:18:17.540Z,37.63
2022-11-23T21:20:44.793Z,34.03
2022-11-23T21:23:12.069Z,30.85
2022-11-23T21:25:39.427Z,42.95
2022-11-23T21:28:06.788Z,41.30
2022-11-23T21:30:36.121Z,36.60
2022-11-23T21:33:03.477Z,37.13
2022-11-23T21:35:30.857Z,43.50
2022-11-23T21:37:58.242Z,46.63
2022-11-23T21:40:25.393Z,48.25
2022-11-23T21:42:53.608Z,42.40
2022-11-23T21:45:20.822Z,40.33
2022-11-23T21:47:48.761Z,41.70
2022-11-23T21:50:16.091Z,44.65
2022-11-23T21:52:43.282Z,36.92
2022-11-23T21:55:10.603Z,46.63
2022-11-23T21:57:37.823Z,47.47
2022-11-23T22:00:05.327Z,32.78
2022-11-23T22:02:32.523Z,44.03
2022-11-23T22:04:59.720Z,60.28
2022-11-23T22:07:27.025Z,36.47
2022-11-23T22:09:54.296Z,47.45
2022-11-23T22:12:21.625Z,44.53
2022-11-23T22:14:48.838Z,52.33
2022-11-23T22:17:16.103Z,51.75
2022-11-23T22:19:43.272Z,38.45
2022-11-23T22:22:10.475Z,40.53
2022-11-23T22:24:38.260Z,45.03
2022-11-23T22:27:05.500Z,45.60
2022-11-23T22:29:32.769Z,39.83
2022-11-23T22:31:59.978Z,43.80
2022-11-23T22:34:29.994Z,48.05
2022-11-23T22:36:57.354Z,34.58
2022-11-23T22:39:24.822Z,40.00
2022-11-23T22:41:52.032Z,35.25
2022-11-23T22:44:19.190Z,41.13
2022-11-23T22:46:46.415Z,42.55
2022-11-23T22:49:13.608Z,49.47
2022-11-23T22:51:41.585Z,46.63
2022-11-23T22:54:09.665Z,40.67
2022-11-23T22:56:38.995Z,32.67
2022-11-23T22:59:06.307Z,40.03
2022-11-23T23:01:33.511Z,42.72
2022-11-23T23:04:01.944Z,48.15
2022-11-23T23:06:30.537Z,37.85
2022-11-23T23:08:58.900Z,33.30
2022-11-23T23:11:27.045Z,44.53
2022-11-23T23:13:54.570Z,31.05
2022-11-23T23:16:21.899Z,36.80
2022-11-23T23:18:49.215Z,36.92
2022-11-23T23:21:17.311Z,38.40
2022-11-23T23:23:45.856Z,38.65
2022-11-23T23:26:14.188Z,38.13
2022-11-23T23:28:41.667Z,33.70
2022-11-23T23:31:10.412Z,34.47
2022-11-23T23:33:38.200Z,33.22
2022-11-23T23:36:05.424Z,37.50
2022-11-23T23:38:33.045Z,36.78
2022-11-23T23:41:00.616Z,31.23
2022-11-23T23:43:28.789Z,36.72
2022-11-23T23:45:59.964Z,37.25
2022-11-23T23:48:31.248Z,31.65
2022-11-23T23:50:58.412Z,35.75
2022-11-23T23:53:25.658Z,29.42
2022-11-23T23:55:57.216Z,35.33
2022-11-23T23:58:24.561Z,25.90
